sensor_id;sensor_type;location;lat;lon;timestamp;P1;durP1;ratioP1;P2;durP2;ratioP2
52564;SDS011;38460;53.106;7.004;2024-01-06T00:01:34;21.70;;;13.70;;
52564;SDS011;38460;53.106;7.004;2024-01-06T00:03:59;21.23;;;13.60;;
52564;SDS011;38460;53.106;7.004;2024-01-06T00:06:25;20.08;;;14.00;;
52564;SDS011;38460;53.106;7.004;2024-01-06T00:08:51;19.75;;;13.00;;
52564;SDS011;38460;53.106;7.004;2024-01-06T00:11:19;22.60;;;13.60;;
52564;SDS011;38460;53.106;7.004;2024-01-06T00:13:48;21.10;;;13.48;;
52564;SDS011;38460;53.106;7.004;2024-01-06T00:16:18;23.23;;;13.20;;
52564;SDS011;38460;53.106;7.004;2024-01-06T00:18:45;18.67;;;13.20;;
52564;SDS011;38460;53.106;7.004;2024-01-06T00:21:11;22.77;;;15.10;;
52564;SDS011;38460;53.106;7.004;2024-01-06T00:23:36;20.30;;;13.93;;
52564;SDS011;38460;53.106;7.004;2024-01-06T00:26:03;21.73;;;13.85;;
52564;SDS011;38460;53.106;7.004;2024-01-06T00:28:29;24.42;;;14.40;;
52564;SDS011;38460;53.106;7.004;2024-01-06T00:30:55;24.02;;;13.95;;
52564;SDS011;38460;53.106;7.004;2024-01-06T00:33:21;22.90;;;13.65;;
52564;SDS011;38460;53.106;7.004;2024-01-06T00:35:46;25.38;;;15.20;;
52564;SDS011;38460;53.106;7.004;2024-01-06T00:38:12;23.52;;;15.30;;
52564;SDS011;38460;53.106;7.004;2024-01-06T00:40:38;22.20;;;15.00;;
52564;SDS011;38460;53.106;7.004;2024-01-06T00:43:04;23.00;;;13.60;;
52564;SDS011;38460;53.106;7.004;2024-01-06T00:45:30;23.70;;;15.27;;
52564;SDS011;38460;53.106;7.004;2024-01-06T00:47:56;24.63;;;15.57;;
52564;SDS011;38460;53.106;7.004;2024-01-06T00:50:22;21.17;;;13.48;;
52564;SDS011;38460;53.106;7.004;2024-01-06T00:52:48;22.60;;;13.43;;
52564;SDS011;38460;53.106;7.004;2024-01-06T00:55:17;20.00;;;14.00;;
52564;SDS011;38460;53.106;7.004;2024-01-06T00:57:44;23.42;;;14.73;;
52564;SDS011;38460;53.106;7.004;2024-01-06T01:00:10;20.90;;;13.65;;
52564;SDS011;38460;53.106;7.004;2024-01-06T01:02:36;21.80;;;13.63;;
52564;SDS011;38460;53.106;7.004;2024-01-06T01:05:02;20.08;;;12.73;;
52564;SDS011;38460;53.106;7.004;2024-01-06T01:07:28;19.90;;;12.43;;
52564;SDS011;38460;53.106;7.004;2024-01-06T01:09:53;21.98;;;13.10;;
52564;SDS011;38460;53.106;7.004;2024-01-06T01:12:21;18.17;;;12.80;;
52564;SDS011;38460;53.106;7.004;2024-01-06T01:14:48;22.25;;;14.05;;
52564;SDS011;38460;53.106;7.004;2024-01-06T01:17:14;20.77;;;12.85;;
52564;SDS011;38460;53.106;7.004;2024-01-06T01:19:40;18.67;;;12.45;;
52564;SDS011;38460;53.106;7.004;2024-01-06T01:22:06;21.23;;;12.85;;
52564;SDS011;38460;53.106;7.004;2024-01-06T01:24:32;18.50;;;13.00;;
52564;SDS011;38460;53.106;7.004;2024-01-06T01:26:57;20.60;;;13.75;;
52564;SDS011;38460;53.106;7.004;2024-01-06T01:29:23;21.55;;;13.80;;
52564;SDS011;38460;53.106;7.004;2024-01-06T01:31:49;20.80;;;12.15;;
52564;SDS011;38460;53.106;7.004;2024-01-06T01:34:14;19.30;;;12.38;;
52564;SDS011;38460;53.106;7.004;2024-01-06T01:36:40;18.23;;;12.13;;
52564;SDS011;38460;53.106;7.004;2024-01-06T01:39:06;17.98;;;11.50;;
52564;SDS011;38460;53.106;7.004;2024-01-06T01:41:32;18.73;;;10.95;;
52564;SDS011;38460;53.106;7.004;2024-01-06T01:43:58;19.33;;;12.85;;
52564;SDS011;38460;53.106;7.004;2024-01-06T01:46:27;20.75;;;12.77;;
52564;SDS011;38460;53.106;7.004;2024-01-06T01:48:57;22.55;;;13.80;;
52564;SDS011;38460;53.106;7.004;2024-01-06T01:51:27;17.08;;;11.75;;
52564;SDS011;38460;53.106;7.004;2024-01-06T01:53:54;18.02;;;13.10;;
52564;SDS011;38460;53.106;7.004;2024-01-06T01:56:21;19.48;;;13.00;;
52564;SDS011;38460;53.106;7.004;2024-01-06T01:58:47;20.35;;;13.25;;
52564;SDS011;38460;53.106;7.004;2024-01-06T02:01:13;21.52;;;13.02;;
52564;SDS011;38460;53.106;7.004;2024-01-06T02:03:40;21.60;;;14.10;;
52564;SDS011;38460;53.106;7.004;2024-01-06T02:06:08;20.73;;;12.93;;
52564;SDS011;38460;53.106;7.004;2024-01-06T02:08:34;21.70;;;13.00;;
52564;SDS011;38460;53.106;7.004;2024-01-06T02:11:00;23.30;;;13.68;;
52564;SDS011;38460;53.106;7.004;2024-01-06T02:13:33;20.23;;;11.77;;
52564;SDS011;38460;53.106;7.004;2024-01-06T02:16:00;17.25;;;10.75;;
52564;SDS011;38460;53.106;7.004;2024-01-06T02:18:27;18.27;;;12.50;;
52564;SDS011;38460;53.106;7.004;2024-01-06T02:20:53;22.40;;;14.05;;
52564;SDS011;38460;53.106;7.004;2024-01-06T02:23:22;20.98;;;12.60;;
52564;SDS011;38460;53.106;7.004;2024-01-06T02:25:48;21.08;;;12.95;;
52564;SDS011;38460;53.106;7.004;2024-01-06T02:28:14;19.73;;;12.57;;
52564;SDS011;38460;53.106;7.004;2024-01-06T02:30:39;17.00;;;11.70;;
52564;SDS011;38460;53.106;7.004;2024-01-06T02:33:05;22.88;;;12.25;;
52564;SDS011;38460;53.106;7.004;2024-01-06T02:35:31;19.30;;;11.90;;
52564;SDS011;38460;53.106;7.004;2024-01-06T02:37:56;19.55;;;12.68;;
52564;SDS011;38460;53.106;7.004;2024-01-06T02:40:22;17.00;;;12.43;;
52564;SDS011;38460;53.106;7.004;2024-01-06T02:42:48;18.27;;;12.07;;
52564;SDS011;38460;53.106;7.004;2024-01-06T02:45:13;15.45;;;10.57;;
52564;SDS011;38460;53.106;7.004;2024-01-06T02:47:39;17.30;;;11.02;;
52564;SDS011;38460;53.106;7.004;2024-01-06T02:50:05;17.63;;;11.55;;
52564;SDS011;38460;53.106;7.004;2024-01-06T02:52:31;15.95;;;10.45;;
52564;SDS011;38460;53.106;7.004;2024-01-06T02:54:57;17.88;;;11.00;;
52564;SDS011;38460;53.106;7.004;2024-01-06T02:57:22;19.10;;;11.27;;
52564;SDS011;38460;53.106;7.004;2024-01-06T02:59:48;19.00;;;11.52;;
52564;SDS011;38460;53.106;7.004;2024-01-06T03:02:14;18.98;;;11.88;;
52564;SDS011;38460;53.106;7.004;2024-01-06T03:04:39;18.52;;;12.55;;
52564;SDS011;38460;53.106;7.004;2024-01-06T03:07:05;15.35;;;10.48;;
52564;SDS011;38460;53.106;7.004;2024-01-06T03:09:31;17.92;;;10.45;;
52564;SDS011;38460;53.106;7.004;2024-01-06T03:11:56;14.50;;;9.77;;
52564;SDS011;38460;53.106;7.004;2024-01-06T03:14:22;17.92;;;11.95;;
52564;SDS011;38460;53.106;7.004;2024-01-06T03:16:48;18.33;;;11.93;;
52564;SDS011;38460;53.106;7.004;2024-01-06T03:19:14;17.65;;;11.70;;
52564;SDS011;38460;53.106;7.004;2024-01-06T03:21:39;19.05;;;11.50;;
52564;SDS011;38460;53.106;7.004;2024-01-06T03:24:06;19.60;;;12.25;;
52564;SDS011;38460;53.106;7.004;2024-01-06T03:26:34;22.90;;;12.48;;
52564;SDS011;38460;53.106;7.004;2024-01-06T03:29:00;20.17;;;12.23;;
52564;SDS011;38460;53.106;7.004;2024-01-06T03:31:28;17.27;;;11.50;;
52564;SDS011;38460;53.106;7.004;2024-01-06T03:33:54;15.82;;;11.27;;
52564;SDS011;38460;53.106;7.004;2024-01-06T03:36:21;18.98;;;11.77;;
52564;SDS011;38460;53.106;7.004;2024-01-06T03:38:47;18.48;;;10.23;;
52564;SDS011;38460;53.106;7.004;2024-01-06T03:41:12;16.67;;;11.02;;
52564;SDS011;38460;53.106;7.004;2024-01-06T03:43:38;17.75;;;10.32;;
52564;SDS011;38460;53.106;7.004;2024-01-06T03:46:05;15.25;;;10.57;;
52564;SDS011;38460;53.106;7.004;2024-01-06T03:48:30;14.63;;;9.55;;
52564;SDS011;38460;53.106;7.004;2024-01-06T03:50:57;15.02;;;10.02;;
52564;SDS011;38460;53.106;7.004;2024-01-06T03:53:24;16.27;;;9.35;;
52564;SDS011;38460;53.106;7.004;2024-01-06T03:55:50;15.73;;;10.50;;
52564;SDS011;38460;53.106;7.004;2024-01-06T03:58:17;18.42;;;11.40;;
52564;SDS011;38460;53.106;7.004;2024-01-06T04:00:42;17.25;;;10.63;;
52564;SDS011;38460;53.106;7.004;2024-01-06T04:03:08;15.50;;;10.27;;
52564;SDS011;38460;53.106;7.004;2024-01-06T04:05:34;14.38;;;10.07;;
52564;SDS011;38460;53.106;7.004;2024-01-06T04:08:00;17.58;;;10.13;;
52564;SDS011;38460;53.106;7.004;2024-01-06T04:10:25;14.55;;;9.20;;
52564;SDS011;38460;53.106;7.004;2024-01-06T04:12:51;15.55;;;9.85;;
52564;SDS011;38460;53.106;7.004;2024-01-06T04:15:17;17.55;;;10.68;;
52564;SDS011;38460;53.106;7.004;2024-01-06T04:17:43;16.33;;;11.02;;
52564;SDS011;38460;53.106;7.004;2024-01-06T04:20:08;15.68;;;10.25;;
52564;SDS011;38460;53.106;7.004;2024-01-06T04:22:37;19.80;;;10.98;;
52564;SDS011;38460;53.106;7.004;2024-01-06T04:25:04;17.83;;;10.68;;
52564;SDS011;38460;53.106;7.004;2024-01-06T04:27:29;16.73;;;10.40;;
52564;SDS011;38460;53.106;7.004;2024-01-06T04:29:56;22.88;;;10.48;;
52564;SDS011;38460;53.106;7.004;2024-01-06T04:32:21;17.27;;;11.02;;
52564;SDS011;38460;53.106;7.004;2024-01-06T04:34:47;17.80;;;11.32;;
52564;SDS011;38460;53.106;7.004;2024-01-06T04:37:13;19.88;;;11.98;;
52564;SDS011;38460;53.106;7.004;2024-01-06T04:39:39;17.75;;;12.15;;
52564;SDS011;38460;53.106;7.004;2024-01-06T04:42:05;19.15;;;10.68;;
52564;SDS011;38460;53.106;7.004;2024-01-06T04:44:31;20.17;;;12.05;;
52564;SDS011;38460;53.106;7.004;2024-01-06T04:46:57;20.15;;;12.13;;
52564;SDS011;38460;53.106;7.004;2024-01-06T04:49:23;19.30;;;11.25;;
52564;SDS011;38460;53.106;7.004;2024-01-06T04:51:48;18.90;;;10.88;;
52564;SDS011;38460;53.106;7.004;2024-01-06T04:54:14;14.77;;;9.75;;
52564;SDS011;38460;53.106;7.004;2024-01-06T04:56:40;16.08;;;10.30;;
52564;SDS011;38460;53.106;7.004;2024-01-06T04:59:05;14.98;;;9.27;;
52564;SDS011;38460;53.106;7.004;2024-01-06T05:01:31;15.35;;;10.60;;
52564;SDS011;38460;53.106;7.004;2024-01-06T05:03:57;15.20;;;10.30;;
52564;SDS011;38460;53.106;7.004;2024-01-06T05:06:24;15.30;;;9.68;;
52564;SDS011;38460;53.106;7.004;2024-01-06T05:08:50;16.20;;;9.70;;
52564;SDS011;38460;53.106;7.004;2024-01-06T05:11:16;15.80;;;10.27;;
52564;SDS011;38460;53.106;7.004;2024-01-06T05:13:41;14.65;;;9.15;;
52564;SDS011;38460;53.106;7.004;2024-01-06T05:16:07;17.30;;;9.85;;
52564;SDS011;38460;53.106;7.004;2024-01-06T05:18:34;15.68;;;10.05;;
52564;SDS011;38460;53.106;7.004;2024-01-06T05:21:00;17.40;;;10.35;;
52564;SDS011;38460;53.106;7.004;2024-01-06T05:23:27;16.27;;;10.00;;
52564;SDS011;38460;53.106;7.004;2024-01-06T05:25:52;15.50;;;9.18;;
52564;SDS011;38460;53.106;7.004;2024-01-06T05:28:18;13.93;;;9.60;;
52564;SDS011;38460;53.106;7.004;2024-01-06T05:30:44;13.43;;;8.88;;
52564;SDS011;38460;53.106;7.004;2024-01-06T05:33:10;15.48;;;9.93;;
52564;SDS011;38460;53.106;7.004;2024-01-06T05:35:38;17.52;;;11.13;;
52564;SDS011;38460;53.106;7.004;2024-01-06T05:38:06;16.08;;;9.93;;
52564;SDS011;38460;53.106;7.004;2024-01-06T05:40:32;14.30;;;9.15;;
52564;SDS011;38460;53.106;7.004;2024-01-06T05:42:58;17.88;;;9.98;;
52564;SDS011;38460;53.106;7.004;2024-01-06T05:45:24;17.20;;;10.32;;
52564;SDS011;38460;53.106;7.004;2024-01-06T05:47:50;15.73;;;9.35;;
52564;SDS011;38460;53.106;7.004;2024-01-06T05:50:15;14.23;;;9.40;;
52564;SDS011;38460;53.106;7.004;2024-01-06T05:52:42;15.52;;;9.70;;
52564;SDS011;38460;53.106;7.004;2024-01-06T05:55:08;13.40;;;9.85;;
52564;SDS011;38460;53.106;7.004;2024-01-06T05:57:34;13.02;;;8.60;;
52564;SDS011;38460;53.106;7.004;2024-01-06T06:00:00;15.50;;;9.63;;
52564;SDS011;38460;53.106;7.004;2024-01-06T06:02:26;15.57;;;9.98;;
52564;SDS011;38460;53.106;7.004;2024-01-06T06:04:52;16.90;;;9.95;;
52564;SDS011;38460;53.106;7.004;2024-01-06T06:07:18;15.30;;;10.15;;
52564;SDS011;38460;53.106;7.004;2024-01-06T06:09:44;13.77;;;9.90;;
52564;SDS011;38460;53.106;7.004;2024-01-06T06:12:12;18.35;;;10.77;;
52564;SDS011;38460;53.106;7.004;2024-01-06T06:14:38;14.60;;;10.32;;
52564;SDS011;38460;53.106;7.004;2024-01-06T06:17:04;14.57;;;9.88;;
52564;SDS011;38460;53.106;7.004;2024-01-06T06:19:30;17.73;;;10.95;;
52564;SDS011;38460;53.106;7.004;2024-01-06T06:21:56;15.65;;;10.23;;
52564;SDS011;38460;53.106;7.004;2024-01-06T06:24:21;14.93;;;10.05;;
52564;SDS011;38460;53.106;7.004;2024-01-06T06:26:47;16.73;;;9.93;;
52564;SDS011;38460;53.106;7.004;2024-01-06T06:29:13;16.85;;;10.07;;
52564;SDS011;38460;53.106;7.004;2024-01-06T06:31:39;18.15;;;11.63;;
52564;SDS011;38460;53.106;7.004;2024-01-06T06:34:04;19.65;;;11.13;;
52564;SDS011;38460;53.106;7.004;2024-01-06T06:36:30;16.50;;;10.55;;
52564;SDS011;38460;53.106;7.004;2024-01-06T06:38:56;14.18;;;9.65;;
52564;SDS011;38460;53.106;7.004;2024-01-06T06:41:23;16.25;;;9.95;;
52564;SDS011;38460;53.106;7.004;2024-01-06T06:43:50;14.43;;;9.80;;
52564;SDS011;38460;53.106;7.004;2024-01-06T06:46:16;15.15;;;9.10;;
52564;SDS011;38460;53.106;7.004;2024-01-06T06:48:42;14.70;;;8.88;;
52564;SDS011;38460;53.106;7.004;2024-01-06T06:51:07;12.32;;;8.75;;
52564;SDS011;38460;53.106;7.004;2024-01-06T06:53:33;14.75;;;8.90;;
52564;SDS011;38460;53.106;7.004;2024-01-06T06:55:59;13.23;;;8.85;;
52564;SDS011;38460;53.106;7.004;2024-01-06T06:58:24;16.05;;;8.82;;
52564;SDS011;38460;53.106;7.004;2024-01-06T07:00:50;12.68;;;8.30;;
52564;SDS011;38460;53.106;7.004;2024-01-06T07:03:16;13.63;;;9.18;;
52564;SDS011;38460;53.106;7.004;2024-01-06T07:05:41;13.95;;;8.80;;
52564;SDS011;38460;53.106;7.004;2024-01-06T07:08:07;13.45;;;8.88;;
52564;SDS011;38460;53.106;7.004;2024-01-06T07:10:33;14.98;;;9.25;;
52564;SDS011;38460;53.106;7.004;2024-01-06T07:12:58;15.60;;;9.93;;
52564;SDS011;38460;53.106;7.004;2024-01-06T07:15:24;14.75;;;10.20;;
52564;SDS011;38460;53.106;7.004;2024-01-06T07:17:50;14.75;;;9.15;;
52564;SDS011;38460;53.106;7.004;2024-01-06T07:20:16;13.23;;;8.55;;
52564;SDS011;38460;53.106;7.004;2024-01-06T07:22:41;13.02;;;8.60;;
52564;SDS011;38460;53.106;7.004;2024-01-06T07:25:07;14.65;;;8.80;;
52564;SDS011;38460;53.106;7.004;2024-01-06T07:27:33;13.60;;;9.40;;
52564;SDS011;38460;53.106;7.004;2024-01-06T07:29:59;12.60;;;7.88;;
52564;SDS011;38460;53.106;7.004;2024-01-06T07:32:25;15.07;;;9.20;;
52564;SDS011;38460;53.106;7.004;2024-01-06T07:34:50;13.82;;;9.13;;
52564;SDS011;38460;53.106;7.004;2024-01-06T07:37:16;15.93;;;9.50;;
52564;SDS011;38460;53.106;7.004;2024-01-06T07:39:42;13.98;;;9.15;;
52564;SDS011;38460;53.106;7.004;2024-01-06T07:42:08;13.73;;;9.65;;
52564;SDS011;38460;53.106;7.004;2024-01-06T07:44:34;14.68;;;9.23;;
52564;SDS011;38460;53.106;7.004;2024-01-06T07:47:00;14.77;;;9.70;;
52564;SDS011;38460;53.106;7.004;2024-01-06T07:49:27;16.08;;;9.60;;
52564;SDS011;38460;53.106;7.004;2024-01-06T07:51:52;14.38;;;9.48;;
52564;SDS011;38460;53.106;7.004;2024-01-06T07:54:18;14.02;;;9.38;;
52564;SDS011;38460;53.106;7.004;2024-01-06T07:56:44;14.77;;;9.65;;
52564;SDS011;38460;53.106;7.004;2024-01-06T07:59:10;14.20;;;8.95;;
52564;SDS011;38460;53.106;7.004;2024-01-06T08:01:36;16.48;;;10.40;;
52564;SDS011;38460;53.106;7.004;2024-01-06T08:04:02;14.77;;;9.98;;
52564;SDS011;38460;53.106;7.004;2024-01-06T08:06:27;14.32;;;9.80;;
52564;SDS011;38460;53.106;7.004;2024-01-06T08:08:53;14.82;;;9.77;;
52564;SDS011;38460;53.106;7.004;2024-01-06T08:11:20;15.52;;;10.30;;
52564;SDS011;38460;53.106;7.004;2024-01-06T08:13:46;15.27;;;9.77;;
52564;SDS011;38460;53.106;7.004;2024-01-06T08:16:12;15.25;;;10.48;;
52564;SDS011;38460;53.106;7.004;2024-01-06T08:18:37;15.90;;;10.57;;
52564;SDS011;38460;53.106;7.004;2024-01-06T08:21:03;14.43;;;9.20;;
52564;SDS011;38460;53.106;7.004;2024-01-06T08:23:29;15.75;;;10.23;;
52564;SDS011;38460;53.106;7.004;2024-01-06T08:25:55;15.40;;;10.32;;
52564;SDS011;38460;53.106;7.004;2024-01-06T08:28:21;14.98;;;9.85;;
52564;SDS011;38460;53.106;7.004;2024-01-06T08:30:48;16.98;;;10.27;;
52564;SDS011;38460;53.106;7.004;2024-01-06T08:33:14;14.80;;;10.00;;
52564;SDS011;38460;53.106;7.004;2024-01-06T08:35:40;19.33;;;11.25;;
52564;SDS011;38460;53.106;7.004;2024-01-06T08:38:06;18.48;;;11.48;;
52564;SDS011;38460;53.106;7.004;2024-01-06T08:40:33;20.40;;;11.55;;
52564;SDS011;38460;53.106;7.004;2024-01-06T08:42:59;16.95;;;10.50;;
52564;SDS011;38460;53.106;7.004;2024-01-06T08:45:25;17.98;;;11.80;;
52564;SDS011;38460;53.106;7.004;2024-01-06T08:47:50;23.42;;;13.02;;
52564;SDS011;38460;53.106;7.004;2024-01-06T08:50:16;17.48;;;10.90;;
52564;SDS011;38460;53.106;7.004;2024-01-06T08:52:42;17.20;;;11.80;;
52564;SDS011;38460;53.106;7.004;2024-01-06T08:55:08;18.35;;;11.40;;
52564;SDS011;38460;53.106;7.004;2024-01-06T08:57:33;23.52;;;12.73;;
52564;SDS011;38460;53.106;7.004;2024-01-06T08:59:59;20.02;;;11.50;;
52564;SDS011;38460;53.106;7.004;2024-01-06T09:02:25;18.30;;;11.45;;
52564;SDS011;38460;53.106;7.004;2024-01-06T09:04:50;19.88;;;12.02;;
52564;SDS011;38460;53.106;7.004;2024-01-06T09:07:16;20.98;;;12.05;;
52564;SDS011;38460;53.106;7.004;2024-01-06T09:09:45;18.95;;;12.20;;
52564;SDS011;38460;53.106;7.004;2024-01-06T09:12:10;19.65;;;12.63;;
52564;SDS011;38460;53.106;7.004;2024-01-06T09:14:36;21.83;;;13.63;;
52564;SDS011;38460;53.106;7.004;2024-01-06T09:17:02;20.42;;;12.43;;
52564;SDS011;38460;53.106;7.004;2024-01-06T09:19:29;17.83;;;12.52;;
52564;SDS011;38460;53.106;7.004;2024-01-06T09:21:56;21.10;;;13.35;;
52564;SDS011;38460;53.106;7.004;2024-01-06T09:24:22;20.20;;;13.20;;
52564;SDS011;38460;53.106;7.004;2024-01-06T09:26:47;20.95;;;13.02;;
52564;SDS011;38460;53.106;7.004;2024-01-06T09:29:15;21.75;;;12.98;;
52564;SDS011;38460;53.106;7.004;2024-01-06T09:31:41;20.27;;;12.23;;
52564;SDS011;38460;53.106;7.004;2024-01-06T09:34:08;19.20;;;12.32;;
52564;SDS011;38460;53.106;7.004;2024-01-06T09:36:35;22.90;;;13.20;;
52564;SDS011;38460;53.106;7.004;2024-01-06T09:39:01;22.17;;;13.57;;
52564;SDS011;38460;53.106;7.004;2024-01-06T09:41:27;21.92;;;13.73;;
52564;SDS011;38460;53.106;7.004;2024-01-06T09:43:53;19.83;;;11.43;;
52564;SDS011;38460;53.106;7.004;2024-01-06T09:46:25;22.60;;;13.52;;
52564;SDS011;38460;53.106;7.004;2024-01-06T09:48:53;22.38;;;13.68;;
52564;SDS011;38460;53.106;7.004;2024-01-06T09:51:20;21.65;;;13.50;;
52564;SDS011;38460;53.106;7.004;2024-01-06T09:53:58;22.65;;;13.68;;
52564;SDS011;38460;53.106;7.004;2024-01-06T09:56:25;18.90;;;13.27;;
52564;SDS011;38460;53.106;7.004;2024-01-06T09:58:54;20.02;;;12.80;;
52564;SDS011;38460;53.106;7.004;2024-01-06T10:01:20;20.42;;;12.50;;
52564;SDS011;38460;53.106;7.004;2024-01-06T10:03:46;20.17;;;12.88;;
52564;SDS011;38460;53.106;7.004;2024-01-06T10:06:15;18.92;;;12.43;;
52564;SDS011;38460;53.106;7.004;2024-01-06T10:08:42;16.77;;;12.75;;
52564;SDS011;38460;53.106;7.004;2024-01-06T10:11:09;21.90;;;12.25;;
52564;SDS011;38460;53.106;7.004;2024-01-06T10:13:35;18.08;;;11.57;;
52564;SDS011;38460;53.106;7.004;2024-01-06T10:16:05;21.88;;;12.63;;
52564;SDS011;38460;53.106;7.004;2024-01-06T10:18:31;22.45;;;12.40;;
52564;SDS011;38460;53.106;7.004;2024-01-06T10:20:58;19.30;;;11.82;;
52564;SDS011;38460;53.106;7.004;2024-01-06T10:23:24;19.70;;;12.63;;
52564;SDS011;38460;53.106;7.004;2024-01-06T10:25:55;21.38;;;14.20;;
52564;SDS011;38460;53.106;7.004;2024-01-06T10:28:21;21.23;;;12.52;;
52564;SDS011;38460;53.106;7.004;2024-01-06T10:30:53;20.33;;;12.77;;
52564;SDS011;38460;53.106;7.004;2024-01-06T10:33:21;20.27;;;11.90;;
52564;SDS011;38460;53.106;7.004;2024-01-06T10:35:48;22.48;;;13.63;;
52564;SDS011;38460;53.106;7.004;2024-01-06T10:38:14;18.98;;;11.75;;
52564;SDS011;38460;53.106;7.004;2024-01-06T10:41:14;21.48;;;12.40;;
52564;SDS011;38460;53.106;7.004;2024-01-06T10:43:33;20.70;;;13.45;;
52564;SDS011;38460;53.106;7.004;2024-01-06T10:46:05;18.33;;;12.23;;
52564;SDS011;38460;53.106;7.004;2024-01-06T10:48:35;20.45;;;12.38;;
52564;SDS011;38460;53.106;7.004;2024-01-06T10:51:07;19.77;;;11.55;;
52564;SDS011;38460;53.106;7.004;2024-01-06T10:53:34;20.55;;;12.27;;
52564;SDS011;38460;53.106;7.004;2024-01-06T10:56:07;18.70;;;12.65;;
52564;SDS011;38460;53.106;7.004;2024-01-06T10:58:35;18.45;;;12.98;;
52564;SDS011;38460;53.106;7.004;2024-01-06T11:01:07;22.98;;;12.95;;
52564;SDS011;38460;53.106;7.004;2024-01-06T11:03:34;21.15;;;13.48;;
52564;SDS011;38460;53.106;7.004;2024-01-06T11:06:02;18.92;;;12.15;;
52564;SDS011;38460;53.106;7.004;2024-01-06T11:08:28;23.30;;;13.15;;
52564;SDS011;38460;53.106;7.004;2024-01-06T11:10:57;19.73;;;13.13;;
52564;SDS011;38460;53.106;7.004;2024-01-06T11:13:23;21.88;;;13.38;;
52564;SDS011;38460;53.106;7.004;2024-01-06T11:15:51;19.73;;;12.48;;
52564;SDS011;38460;53.106;7.004;2024-01-06T11:21:18;20.70;;;12.27;;
52564;SDS011;38460;53.106;7.004;2024-01-06T11:26:55;19.67;;;12.63;;
52564;SDS011;38460;53.106;7.004;2024-01-06T11:29:21;20.30;;;11.63;;
52564;SDS011;38460;53.106;7.004;2024-01-06T11:34:42;19.70;;;12.82;;
52564;SDS011;38460;53.106;7.004;2024-01-06T11:37:07;20.38;;;12.80;;
52564;SDS011;38460;53.106;7.004;2024-01-06T11:39:37;23.70;;;15.05;;
52564;SDS011;38460;53.106;7.004;2024-01-06T11:42:05;26.23;;;13.97;;
52564;SDS011;38460;53.106;7.004;2024-01-06T11:44:35;20.83;;;13.82;;
52564;SDS011;38460;53.106;7.004;2024-01-06T11:47:05;20.42;;;12.65;;
52564;SDS011;38460;53.106;7.004;2024-01-06T11:49:31;18.88;;;12.65;;
52564;SDS011;38460;53.106;7.004;2024-01-06T11:51:57;18.55;;;11.32;;
52564;SDS011;38460;53.106;7.004;2024-01-06T11:54:24;18.80;;;12.50;;
52564;SDS011;38460;53.106;7.004;2024-01-06T11:56:49;20.48;;;12.82;;
52564;SDS011;38460;53.106;7.004;2024-01-06T11:59:18;19.42;;;13.18;;
52564;SDS011;38460;53.106;7.004;2024-01-06T12:01:44;20.80;;;13.75;;
52564;SDS011;38460;53.106;7.004;2024-01-06T12:04:12;21.20;;;12.23;;
52564;SDS011;38460;53.106;7.004;2024-01-06T12:06:39;17.83;;;12.27;;
52564;SDS011;38460;53.106;7.004;2024-01-06T12:09:12;21.38;;;13.15;;
52564;SDS011;38460;53.106;7.004;2024-01-06T12:11:39;21.35;;;12.07;;
52564;SDS011;38460;53.106;7.004;2024-01-06T12:14:05;21.40;;;12.65;;
52564;SDS011;38460;53.106;7.004;2024-01-06T12:16:31;17.88;;;11.57;;
52564;SDS011;38460;53.106;7.004;2024-01-06T12:18:58;19.05;;;11.82;;
52564;SDS011;38460;53.106;7.004;2024-01-06T12:21:26;20.60;;;12.90;;
52564;SDS011;38460;53.106;7.004;2024-01-06T12:23:53;18.15;;;12.43;;
52564;SDS011;38460;53.106;7.004;2024-01-06T12:26:18;17.85;;;11.65;;
52564;SDS011;38460;53.106;7.004;2024-01-06T12:28:50;16.23;;;10.38;;
52564;SDS011;38460;53.106;7.004;2024-01-06T12:31:17;19.55;;;11.63;;
52564;SDS011;38460;53.106;7.004;2024-01-06T12:33:44;17.83;;;11.80;;
52564;SDS011;38460;53.106;7.004;2024-01-06T12:36:09;18.52;;;11.90;;
52564;SDS011;38460;53.106;7.004;2024-01-06T12:38:38;17.60;;;11.20;;
52564;SDS011;38460;53.106;7.004;2024-01-06T12:41:07;19.55;;;12.70;;
52564;SDS011;38460;53.106;7.004;2024-01-06T12:43:33;19.95;;;12.48;;
52564;SDS011;38460;53.106;7.004;2024-01-06T12:45:58;17.85;;;11.85;;
52564;SDS011;38460;53.106;7.004;2024-01-06T12:48:24;21.73;;;12.82;;
52564;SDS011;38460;53.106;7.004;2024-01-06T12:50:50;18.50;;;12.20;;
52564;SDS011;38460;53.106;7.004;2024-01-06T12:53:16;18.50;;;12.30;;
52564;SDS011;38460;53.106;7.004;2024-01-06T12:55:43;18.98;;;11.57;;
52564;SDS011;38460;53.106;7.004;2024-01-06T12:58:09;17.85;;;12.45;;
52564;SDS011;38460;53.106;7.004;2024-01-06T13:00:36;20.02;;;13.32;;
52564;SDS011;38460;53.106;7.004;2024-01-06T13:03:02;18.98;;;12.35;;
52564;SDS011;38460;53.106;7.004;2024-01-06T13:05:29;19.13;;;12.50;;
52564;SDS011;38460;53.106;7.004;2024-01-06T13:07:55;17.75;;;12.35;;
52564;SDS011;38460;53.106;7.004;2024-01-06T13:10:22;19.70;;;12.18;;
52564;SDS011;38460;53.106;7.004;2024-01-06T13:12:48;19.02;;;12.63;;
52564;SDS011;38460;53.106;7.004;2024-01-06T13:15:14;17.67;;;11.20;;
52564;SDS011;38460;53.106;7.004;2024-01-06T13:17:39;18.10;;;12.07;;
52564;SDS011;38460;53.106;7.004;2024-01-06T13:20:05;17.10;;;11.32;;
52564;SDS011;38460;53.106;7.004;2024-01-06T13:22:33;18.70;;;10.80;;
52564;SDS011;38460;53.106;7.004;2024-01-06T13:24:58;18.50;;;11.20;;
52564;SDS011;38460;53.106;7.004;2024-01-06T13:27:25;18.95;;;12.65;;
52564;SDS011;38460;53.106;7.004;2024-01-06T13:29:54;21.08;;;12.50;;
52564;SDS011;38460;53.106;7.004;2024-01-06T13:32:20;20.42;;;12.25;;
52564;SDS011;38460;53.106;7.004;2024-01-06T13:34:47;18.73;;;12.20;;
52564;SDS011;38460;53.106;7.004;2024-01-06T13:37:13;18.30;;;12.07;;
52564;SDS011;38460;53.106;7.004;2024-01-06T13:39:38;17.70;;;11.48;;
52564;SDS011;38460;53.106;7.004;2024-01-06T13:42:04;18.27;;;11.15;;
52564;SDS011;38460;53.106;7.004;2024-01-06T13:44:30;20.33;;;11.32;;
52564;SDS011;38460;53.106;7.004;2024-01-06T13:46:56;18.70;;;11.88;;
52564;SDS011;38460;53.106;7.004;2024-01-06T13:49:22;22.10;;;12.43;;
52564;SDS011;38460;53.106;7.004;2024-01-06T13:51:49;20.33;;;12.70;;
52564;SDS011;38460;53.106;7.004;2024-01-06T13:54:15;17.10;;;10.85;;
52564;SDS011;38460;53.106;7.004;2024-01-06T13:56:41;18.50;;;12.48;;
52564;SDS011;38460;53.106;7.004;2024-01-06T13:59:07;19.48;;;12.65;;
52564;SDS011;38460;53.106;7.004;2024-01-06T14:01:33;17.15;;;10.43;;
52564;SDS011;38460;53.106;7.004;2024-01-06T14:03:59;19.85;;;11.98;;
52564;SDS011;38460;53.106;7.004;2024-01-06T14:06:26;20.05;;;12.30;;
52564;SDS011;38460;53.106;7.004;2024-01-06T14:08:58;19.13;;;13.23;;
52564;SDS011;38460;53.106;7.004;2024-01-06T14:11:25;20.08;;;12.63;;
52564;SDS011;38460;53.106;7.004;2024-01-06T14:13:52;19.55;;;12.77;;
52564;SDS011;38460;53.106;7.004;2024-01-06T14:16:18;22.70;;;14.20;;
52564;SDS011;38460;53.106;7.004;2024-01-06T14:18:45;20.30;;;13.80;;
52564;SDS011;38460;53.106;7.004;2024-01-06T14:21:11;22.08;;;14.13;;
52564;SDS011;38460;53.106;7.004;2024-01-06T14:23:40;20.95;;;13.75;;
52564;SDS011;38460;53.106;7.004;2024-01-06T14:26:09;20.98;;;13.98;;
52564;SDS011;38460;53.106;7.004;2024-01-06T14:28:35;22.15;;;14.02;;